createdAt,value
2023-01-01T00:00:34.822Z,77.97
2023-01-01T00:01:34.783Z,78.17
2023-01-01T00:02:37.039Z,78.17
2023-01-01T00:03:34.790Z,77.76
2023-01-01T00:04:34.736Z,77.90
2023-01-01T00:05:34.697Z,77.86
2023-01-01T00:06:34.714Z,77.90
2023-01-01T00:07:34.696Z,78.27
2023-01-01T00:08:34.709Z,78.20
2023-01-01T00:09:34.642Z,78.00
2023-01-01T00:10:34.685Z,78.20
2023-01-01T00:11:34.633Z,78.41
2023-01-01T00:12:34.643Z,78.81
2023-01-01T00:13:34.581Z,78.81
2023-01-01T00:14:34.633Z,78.41
2023-01-01T00:15:34.573Z,78.20
2023-01-01T00:16:34.617Z,78.61
2023-01-01T00:17:34.573Z,78.71
2023-01-01T00:18:34.621Z,78.61
2023-01-01T00:19:34.527Z,78.41
2023-01-01T00:20:35.530Z,78.41
2023-01-01T00:21:34.528Z,78.41
2023-01-01T00:22:53.771Z,78.51
2023-01-01T00:23:34.462Z,78.91
2023-01-01T00:24:34.500Z,78.61
2023-01-01T00:25:34.434Z,78.71
2023-01-01T00:26:35.608Z,78.61
2023-01-01T00:27:34.425Z,79.02
2023-01-01T00:28:34.421Z,78.61
2023-01-01T00:29:34.380Z,79.02
2023-01-01T00:30:34.407Z,79.32
2023-01-01T00:31:34.376Z,79.52
2023-01-01T00:32:34.421Z,80.24
2023-01-01T00:33:34.316Z,79.02
2023-01-01T00:34:34.344Z,78.44
2023-01-01T00:35:34.305Z,79.72
2023-01-01T00:36:34.333Z,79.72
2023-01-01T00:37:34.264Z,80.44
2023-01-01T00:38:34.285Z,79.86
2023-01-01T00:39:34.278Z,79.46
2023-01-01T00:40:34.268Z,79.46
2023-01-01T00:41:34.212Z,79.66
2023-01-01T00:42:34.222Z,79.77
2023-01-01T00:43:34.192Z,80.27
2023-01-01T00:44:34.225Z,80.27
2023-01-01T00:45:34.197Z,79.97
2023-01-01T00:46:34.205Z,81.39
2023-01-01T00:47:34.138Z,81.59
2023-01-01T00:48:34.151Z,81.29
2023-01-01T00:49:34.114Z,81.09
2023-01-01T00:50:34.125Z,81.49
2023-01-01T00:51:37.134Z,81.29
2023-01-01T00:52:34.091Z,80.68
2023-01-01T00:53:34.049Z,80.47
2023-01-01T00:54:34.051Z,80.27
2023-01-01T00:55:34.050Z,80.41
2023-01-01T00:56:34.037Z,80.41
2023-01-01T00:57:34.005Z,81.02
2023-01-01T00:58:34.019Z,81.33
2023-01-01T00:59:33.966Z,81.53
2023-01-01T01:00:34.011Z,81.43
2023-01-01T01:01:34.083Z,80.72
2023-01-01T01:02:34.085Z,80.62
2023-01-01T01:03:33.931Z,80.72
2023-01-01T01:04:33.960Z,80.41
2023-01-01T01:05:33.913Z,80.31
2023-01-01T01:06:33.920Z,80.21
2023-01-01T01:07:33.892Z,80.62
2023-01-01T01:08:33.872Z,81.12
2023-01-01T01:09:33.853Z,81.43
2023-01-01T01:10:33.857Z,81.33
2023-01-01T01:11:33.835Z,81.12
2023-01-01T01:12:33.817Z,81.06
2023-01-01T01:13:33.795Z,80.96
2023-01-01T01:14:33.817Z,81.37
2023-01-01T01:15:33.778Z,81.46
2023-01-01T01:16:33.800Z,81.98
2023-01-01T01:17:33.757Z,81.16
2023-01-01T01:18:33.752Z,82.18
2023-01-01T01:19:33.706Z,81.26
2023-01-01T01:20:33.724Z,80.85
2023-01-01T01:21:33.676Z,80.85
2023-01-01T01:22:33.745Z,80.45
2023-01-01T01:23:33.643Z,80.55
2023-01-01T01:24:33.684Z,80.96
2023-01-01T01:25:33.639Z,81.16
2023-01-01T01:26:33.637Z,80.65
2023-01-01T01:27:33.644Z,80.55
2023-01-01T01:28:33.606Z,80.35
2023-01-01T01:29:33.587Z,80.24
2023-01-01T01:30:33.656Z,80.15
2023-01-01T01:31:33.547Z,80.35
2023-01-01T01:32:33.588Z,80.24
2023-01-01T01:33:33.512Z,80.15
2023-01-01T01:34:33.528Z,80.15
2023-01-01T01:35:33.495Z,80.04
2023-01-01T01:36:33.492Z,80.04
2023-01-01T01:37:33.468Z,80.55
2023-01-01T01:38:33.495Z,80.55
2023-01-01T01:39:33.454Z,80.35
2023-01-01T01:40:33.460Z,80.35
2023-01-01T01:41:33.456Z,80.35
2023-01-01T01:42:33.421Z,80.45
2023-01-01T01:43:33.401Z,80.45
2023-01-01T01:44:33.424Z,80.65
2023-01-01T01:45:33.739Z,80.45
2023-01-01T01:46:33.551Z,80.55
2023-01-01T01:47:33.341Z,80.55
2023-01-01T01:48:33.331Z,80.35
2023-01-01T01:49:33.311Z,80.55
2023-01-01T01:50:33.333Z,80.55
2023-01-01T01:51:33.279Z,80.65
2023-01-01T01:52:33.307Z,80.55
2023-01-01T01:53:33.251Z,80.35
2023-01-01T01:54:33.263Z,80.04
2023-01-01T01:55:33.207Z,80.04
2023-01-01T01:56:33.243Z,79.84
2023-01-01T01:57:33.206Z,79.80
2023-01-01T01:58:33.234Z,79.70
2023-01-01T01:59:33.164Z,79.50
2023-01-01T02:00:33.171Z,79.50
2023-01-01T02:01:33.224Z,79.19
2023-01-01T02:02:33.355Z,79.09
2023-01-01T02:03:33.327Z,79.19
2023-01-01T02:04:33.131Z,79.05
2023-01-01T02:05:33.075Z,78.95
2023-01-01T02:06:33.114Z,78.85
2023-01-01T02:07:33.058Z,78.64
2023-01-01T02:08:33.080Z,78.64
2023-01-01T02:09:33.025Z,78.34
2023-01-01T02:10:33.051Z,78.24
2023-01-01T02:11:33.012Z,77.90
2023-01-01T02:12:33.031Z,77.90
2023-01-01T02:13:32.987Z,77.49
2023-01-01T02:14:33.006Z,77.29
2023-01-01T02:15:32.990Z,76.95
2023-01-01T02:16:32.953Z,76.64
2023-01-01T02:17:38.758Z,76.54
2023-01-01T02:18:32.930Z,76.54
2023-01-01T02:19:32.897Z,76.54
2023-01-01T02:20:32.898Z,76.54
2023-01-01T02:21:32.869Z,76.44
2023-01-01T02:22:32.909Z,76.34
2023-01-01T02:23:32.881Z,76.44
2023-01-01T02:24:32.861Z,76.34
2023-01-01T02:25:32.807Z,76.03
2023-01-01T02:26:32.821Z,75.93
2023-01-01T02:27:32.809Z,75.63
2023-01-01T02:28:32.814Z,75.70
2023-01-01T02:29:32.796Z,75.49
2023-01-01T02:30:32.767Z,75.29
2023-01-01T02:31:32.773Z,75.19
2023-01-01T02:32:32.770Z,75.29
2023-01-01T02:33:32.712Z,75.09
2023-01-01T02:34:32.749Z,75.19
2023-01-01T02:35:32.692Z,75.19
2023-01-01T02:36:32.694Z,75.29
2023-01-01T02:37:32.658Z,75.39
2023-01-01T02:38:32.675Z,75.49
2023-01-01T02:39:32.626Z,75.49
2023-01-01T02:40:32.660Z,75.90
2023-01-01T02:41:32.596Z,75.73
2023-01-01T02:42:32.618Z,75.29
2023-01-01T02:43:32.573Z,75.29
2023-01-01T02:44:32.611Z,75.39
2023-01-01T02:45:32.569Z,75.19
2023-01-01T02:46:32.556Z,75.19
2023-01-01T02:47:32.521Z,75.29
2023-01-01T02:48:32.577Z,74.98
2023-01-01T02:49:32.517Z,75.09
2023-01-01T02:50:32.487Z,74.88
2023-01-01T02:51:32.512Z,74.78
2023-01-01T02:52:32.504Z,74.58
2023-01-01T02:53:32.437Z,74.48
2023-01-01T02:54:32.485Z,74.58
2023-01-01T02:55:32.431Z,74.38
2023-01-01T02:56:32.425Z,74.38
2023-01-01T02:57:32.391Z,74.38
2023-01-01T02:58:32.403Z,74.48
2023-01-01T02:59:32.391Z,74.68
2023-01-01T03:00:32.367Z,74.68
2023-01-01T03:01:32.507Z,74.48
2023-01-01T03:02:32.472Z,74.68
2023-01-01T03:03:32.353Z,74.58
2023-01-01T03:04:32.325Z,74.38
2023-01-01T03:05:32.274Z,74.48
2023-01-01T03:06:32.289Z,74.58
2023-01-01T03:07:32.279Z,74.68
2023-01-01T03:08:32.258Z,74.48
2023-01-01T03:09:32.243Z,74.58
2023-01-01T03:10:32.208Z,74.38
2023-01-01T03:11:32.221Z,74.38
2023-01-01T03:12:32.194Z,74.17
2023-01-01T03:13:32.198Z,73.97
2023-01-01T03:14:32.190Z,73.66
2023-01-01T03:15:32.237Z,73.43
2023-01-01T03:16:32.143Z,73.43
2023-01-01T03:17:32.174Z,73.22
2023-01-01T03:18:32.105Z,73.12
2023-01-01T03:19:32.119Z,73.12
2023-01-01T03:20:32.084Z,72.82
2023-01-01T03:21:32.117Z,72.92
2023-01-01T03:22:32.058Z,72.92
2023-01-01T03:23:32.080Z,72.82
2023-01-01T03:24:32.020Z,72.52
2023-01-01T03:25:32.053Z,72.72
2023-01-01T03:26:32.019Z,72.61
2023-01-01T03:27:32.015Z,72.61
2023-01-01T03:28:31.976Z,72.41
2023-01-01T03:29:31.988Z,72.41
2023-01-01T03:30:31.932Z,72.21
2023-01-01T03:31:32.014Z,72.31
2023-01-01T03:32:31.939Z,72.31
2023-01-01T03:33:31.948Z,72.31
2023-01-01T03:34:31.908Z,72.31
2023-01-01T03:35:31.900Z,72.11
2023-01-01T03:36:31.859Z,71.80
2023-01-01T03:37:31.891Z,71.91
2023-01-01T03:38:31.826Z,71.60
2023-01-01T03:39:31.861Z,71.60
2023-01-01T03:40:31.798Z,71.60
2023-01-01T03:41:31.829Z,71.80
2023-01-01T03:42:31.784Z,71.60
2023-01-01T03:43:31.778Z,71.70
2023-01-01T03:44:31.782Z,71.60
2023-01-01T03:45:31.755Z,71.70
2023-01-01T03:46:31.774Z,71.70
2023-01-01T03:47:31.752Z,71.70
2023-01-01T03:48:31.736Z,71.84
2023-01-01T03:49:31.725Z,71.94
2023-01-01T03:50:31.666Z,71.94
2023-01-01T03:51:31.685Z,72.14
2023-01-01T03:52:31.655Z,71.73
2023-01-01T03:53:31.685Z,71.73
2023-01-01T03:54:31.642Z,71.64
2023-01-01T03:55:31.654Z,71.73
2023-01-01T03:56:31.587Z,71.94
2023-01-01T03:57:31.602Z,71.94
2023-01-01T03:58:31.573Z,71.84
2023-01-01T03:59:31.559Z,72.04
2023-01-01T04:00:31.554Z,72.04
2023-01-01T04:01:31.620Z,72.14
2023-01-01T04:02:31.593Z,72.14
2023-01-01T04:03:31.598Z,72.34
2023-01-01T04:04:31.488Z,72.45
2023-01-01T04:05:31.537Z,72.58
2023-01-01T04:06:31.465Z,72.89
2023-01-01T04:07:31.462Z,72.89
2023-01-01T04:08:31.431Z,72.78
2023-01-01T04:09:31.435Z,72.99
2023-01-01T04:10:31.438Z,73.09
2023-01-01T04:11:31.430Z,73.19
2023-01-01T04:12:31.409Z,73.29
2023-01-01T04:13:31.407Z,73.19
2023-01-01T04:14:31.344Z,73.19
2023-01-01T04:15:31.356Z,73.29
2023-01-01T04:16:31.417Z,73.29
2023-01-01T04:17:31.352Z,73.39
2023-01-01T04:18:31.294Z,73.60
2023-01-01T04:19:31.311Z,73.50
2023-01-01T04:20:31.267Z,73.70
2023-01-01T04:21:31.310Z,73.50
2023-01-01T04:22:31.265Z,73.39
2023-01-01T04:23:31.244Z,73.50
2023-01-01T04:24:31.201Z,73.50
2023-01-01T04:25:31.248Z,73.50
2023-01-01T04:26:31.193Z,73.50
2023-01-01T04:27:31.199Z,73.39
2023-01-01T04:28:31.202Z,73.50
2023-01-01T04:29:31.169Z,73.39
2023-01-01T04:30:31.130Z,73.39
2023-01-01T04:31:31.152Z,73.39
2023-01-01T04:32:31.109Z,73.39
2023-01-01T04:33:31.133Z,73.39
2023-01-01T04:34:31.085Z,73.39
2023-01-01T04:35:31.093Z,73.39
2023-01-01T04:36:31.055Z,73.39
2023-01-01T04:37:31.080Z,73.60
2023-01-01T04:38:31.047Z,73.29
2023-01-01T04:39:31.062Z,73.19
2023-01-01T04:40:31.011Z,73.29
2023-01-01T04:41:31.004Z,73.26
2023-01-01T04:42:30.993Z,73.19
2023-01-01T04:43:30.978Z,73.19
2023-01-01T04:44:30.967Z,73.39
2023-01-01T04:45:31.005Z,73.60
2023-01-01T04:46:30.905Z,73.70
2023-01-01T04:47:30.929Z,73.80
2023-01-01T04:48:30.892Z,73.80
2023-01-01T04:49:30.925Z,74.01
2023-01-01T04:50:30.875Z,73.90
2023-01-01T04:51:30.874Z,73.80
2023-01-01T04:52:30.831Z,73.80
2023-01-01T04:53:30.845Z,73.90
2023-01-01T04:54:30.835Z,73.90
2023-01-01T04:55:30.843Z,73.80
2023-01-01T04:56:30.797Z,74.01
2023-01-01T04:57:30.819Z,73.70
2023-01-01T04:58:30.773Z,73.70
2023-01-01T04:59:30.841Z,73.60
2023-01-01T05:00:30.771Z,73.70
2023-01-01T05:01:30.940Z,73.60
2023-01-01T05:02:30.781Z,73.60
2023-01-01T05:03:30.752Z,73.70
2023-01-01T05:04:30.701Z,73.80
2023-01-01T05:05:30.718Z,73.70
2023-01-01T05:06:30.706Z,73.80
2023-01-01T05:07:30.654Z,73.80
2023-01-01T05:08:30.615Z,73.80
2023-01-01T05:09:30.633Z,73.80
2023-01-01T05:10:30.616Z,73.90
2023-01-01T05:11:30.605Z,73.90
2023-01-01T05:12:30.568Z,73.80
2023-01-01T05:13:30.577Z,73.80
2023-01-01T05:14:30.568Z,73.80
2023-01-01T05:15:30.551Z,73.90
2023-01-01T05:16:30.573Z,73.80
2023-01-01T05:17:30.586Z,73.80
2023-01-01T05:18:30.479Z,73.90
2023-01-01T05:19:30.492Z,74.01
2023-01-01T05:20:30.457Z,74.10
2023-01-01T05:21:30.476Z,74.10
2023-01-01T05:22:30.467Z,74.21
2023-01-01T05:23:30.437Z,74.21
2023-01-01T05:24:30.407Z,74.21
2023-01-01T05:25:30.431Z,74.41
2023-01-01T05:26:30.416Z,74.44
2023-01-01T05:27:30.400Z,74.34
2023-01-01T05:28:30.346Z,74.44
2023-01-01T05:29:30.388Z,74.65
2023-01-01T05:30:30.320Z,74.75
2023-01-01T05:31:30.354Z,74.75
2023-01-01T05:32:30.299Z,74.95
2023-01-01T05:33:30.324Z,74.95
2023-01-01T05:35:03.829Z,75.05
2023-01-01T05:36:04.830Z,75.05
2023-01-01T05:37:04.806Z,75.16
2023-01-01T05:38:04.808Z,75.29
2023-01-01T05:39:04.792Z,75.49
2023-01-01T05:40:04.779Z,75.49
2023-01-01T05:41:04.729Z,75.60
2023-01-01T05:42:04.750Z,75.60
2023-01-01T05:43:04.716Z,75.49
2023-01-01T05:44:04.831Z,75.49
2023-01-01T05:45:04.697Z,75.49
2023-01-01T05:46:04.766Z,75.49
2023-01-01T05:47:04.720Z,75.40
2023-01-01T05:48:04.700Z,75.49
2023-01-01T05:49:04.641Z,75.40
2023-01-01T05:50:38.206Z,75.49
2023-01-01T05:52:09.417Z,75.70
2023-01-01T05:53:10.402Z,75.70
2023-01-01T05:54:43.958Z,75.60
2023-01-01T05:55:44.926Z,75.80
2023-01-01T05:56:44.929Z,75.70
2023-01-01T05:57:44.927Z,75.70
2023-01-01T05:58:44.911Z,75.70
2023-01-01T05:59:44.859Z,75.70
2023-01-01T06:00:44.868Z,75.90
2023-01-01T06:01:46.106Z,75.80
2023-01-01T06:02:44.975Z,75.80
2023-01-01T06:03:44.784Z,75.80
2023-01-01T06:04:44.892Z,75.80
2023-01-01T06:05:44.780Z,75.90
2023-01-01T06:06:44.808Z,76.01
2023-01-01T06:07:48.314Z,76.01
2023-01-01T06:08:44.758Z,76.01
2023-01-01T06:09:44.733Z,76.04
2023-01-01T06:10:44.751Z,76.01
2023-01-01T06:11:44.718Z,76.04
2023-01-01T06:12:44.702Z,76.10
2023-01-01T06:13:44.700Z,76.01
2023-01-01T06:14:44.667Z,76.10
2023-01-01T06:15:44.663Z,76.04
2023-01-01T06:16:44.714Z,76.04
2023-01-01T06:17:44.633Z,76.04
2023-01-01T06:18:44.623Z,76.04
2023-01-01T06:19:44.601Z,76.04
2023-01-01T06:20:44.599Z,75.94
2023-01-01T06:21:44.614Z,75.84
2023-01-01T06:22:44.570Z,75.90
2023-01-01T06:23:44.534Z,75.90
2023-01-01T06:24:44.547Z,75.94
2023-01-01T06:25:44.507Z,75.94
2023-01-01T06:26:44.538Z,75.94
2023-01-01T06:27:44.501Z,76.04
2023-01-01T06:28:44.493Z,75.94
2023-01-01T06:29:44.451Z,75.94
2023-01-01T06:30:44.564Z,75.94
2023-01-01T06:31:44.489Z,75.94
2023-01-01T06:32:44.447Z,75.94
2023-01-01T06:33:44.417Z,76.04
2023-01-01T06:34:44.405Z,76.04
2023-01-01T06:35:44.371Z,76.25
2023-01-01T06:36:44.426Z,76.14
2023-01-01T06:37:44.377Z,76.14
2023-01-01T06:38:44.398Z,75.94
2023-01-01T06:39:44.335Z,76.14
2023-01-01T06:40:44.324Z,76.14
2023-01-01T06:41:44.314Z,76.14
2023-01-01T06:42:44.318Z,76.04
2023-01-01T06:43:44.259Z,76.14
2023-01-01T06:44:44.279Z,76.25
2023-01-01T06:45:44.237Z,76.14
2023-01-01T06:46:44.347Z,76.14
2023-01-01T06:47:44.231Z,76.14
2023-01-01T06:48:44.222Z,76.25
2023-01-01T06:49:44.184Z,76.25
2023-01-01T06:50:44.228Z,76.25
2023-01-01T06:51:44.172Z,76.34
2023-01-01T06:52:44.172Z,76.45
2023-01-01T06:53:44.153Z,76.59
2023-01-01T06:54:44.158Z,76.48
2023-01-01T06:55:44.100Z,76.68
2023-01-01T06:56:44.133Z,76.59
2023-01-01T06:57:44.097Z,76.68
2023-01-01T06:58:44.113Z,76.59
2023-01-01T06:59:44.061Z,76.79
2023-01-01T07:00:44.086Z,76.59
2023-01-01T07:01:44.965Z,76.68
2023-01-01T07:02:44.203Z,76.59
2023-01-01T07:03:44.148Z,76.68
2023-01-01T07:04:44.023Z,76.79
2023-01-01T07:05:44.001Z,76.79
2023-01-01T07:06:44.011Z,76.59
2023-01-01T07:07:43.973Z,76.59
2023-01-01T07:08:43.972Z,76.59
2023-01-01T07:09:43.918Z,76.38
2023-01-01T07:10:43.965Z,76.38
2023-01-01T07:11:43.915Z,76.38
2023-01-01T07:12:43.909Z,76.48
2023-01-01T07:13:43.875Z,76.28
2023-01-01T07:14:43.894Z,76.18
2023-01-01T07:15:43.886Z,76.18
2023-01-01T07:16:43.863Z,76.28
2023-01-01T07:17:43.808Z,76.48
2023-01-01T07:18:43.845Z,76.38
2023-01-01T07:19:43.795Z,76.18
2023-01-01T07:20:43.822Z,76.18
2023-01-01T07:21:43.764Z,76.28
2023-01-01T07:22:43.791Z,76.07
2023-01-01T07:23:43.741Z,76.18
2023-01-01T07:24:43.761Z,76.18
2023-01-01T07:25:43.717Z,76.18
2023-01-01T07:26:43.735Z,76.28
2023-01-01T07:27:43.713Z,76.25
2023-01-01T07:28:43.711Z,75.84
2023-01-01T07:29:43.677Z,75.73
2023-01-01T07:30:43.727Z,75.73
2023-01-01T07:31:43.629Z,75.73
2023-01-01T07:32:43.646Z,75.53
2023-01-01T07:33:43.654Z,75.43
2023-01-01T07:34:47.500Z,75.43
2023-01-01T07:35:43.600Z,75.23
2023-01-01T07:36:43.609Z,75.23
2023-01-01T07:37:43.585Z,75.23
2023-01-01T07:38:43.566Z,75.23
2023-01-01T07:39:43.526Z,75.53
2023-01-01T07:40:43.580Z,75.33
2023-01-01T07:41:43.526Z,75.43
2023-01-01T07:42:43.522Z,75.43
2023-01-01T07:43:43.473Z,75.43
2023-01-01T07:44:43.500Z,75.43
2023-01-01T07:45:43.473Z,75.53
2023-01-01T07:46:43.577Z,75.43
2023-01-01T07:47:43.443Z,75.63
2023-01-01T07:48:43.442Z,75.63
2023-01-01T07:49:43.396Z,75.73
2023-01-01T07:50:43.404Z,75.84
2023-01-01T07:51:43.415Z,75.84
2023-01-01T07:52:43.393Z,76.04
2023-01-01T07:53:43.527Z,76.04
2023-01-01T07:54:43.372Z,76.18
2023-01-01T07:55:43.329Z,76.38
2023-01-01T07:56:43.351Z,76.48
2023-01-01T07:57:43.333Z,76.68
2023-01-01T07:58:43.306Z,77.20
2023-01-01T07:59:43.281Z,77.60
2023-01-01T08:00:43.293Z,77.64
2023-01-01T08:01:43.393Z,77.98
2023-01-01T08:02:43.382Z,78.69
2023-01-01T08:03:43.213Z,79.14
2023-01-01T08:04:43.248Z,79.54
2023-01-01T08:05:43.194Z,79.68
2023-01-01T08:06:43.220Z,80.29
2023-01-01T08:07:43.154Z,80.40
2023-01-01T08:08:43.196Z,80.29
2023-01-01T08:09:43.163Z,80.64
2023-01-01T08:10:43.143Z,80.64
2023-01-01T08:11:43.105Z,80.94
2023-01-01T08:12:43.150Z,81.15
2023-01-01T08:13:43.123Z,81.15
2023-01-01T08:14:43.187Z,81.35
2023-01-01T08:15:43.101Z,81.56
2023-01-01T08:16:43.063Z,81.80
2023-01-01T08:17:46.749Z,82.10
2023-01-01T08:18:43.074Z,82.41
2023-01-01T08:19:42.992Z,82.10
2023-01-01T08:20:43.019Z,82.21
2023-01-01T08:21:42.971Z,82.41
2023-01-01T08:22:43.038Z,82.51
2023-01-01T08:23:42.944Z,82.71
2023-01-01T08:24:42.969Z,82.82
2023-01-01T08:25:42.911Z,82.51
2023-01-01T08:26:42.980Z,82.82
2023-01-01T08:27:42.893Z,82.61
2023-01-01T08:28:42.913Z,82.82
2023-01-01T08:29:42.893Z,82.71
2023-01-01T08:30:42.914Z,82.41
2023-01-01T08:31:42.944Z,82.71
2023-01-01T08:32:42.881Z,82.96
2023-01-01T08:33:42.876Z,83.16
2023-01-01T08:34:42.841Z,83.57
2023-01-01T08:35:42.783Z,83.67
2023-01-01T08:36:42.821Z,83.78
2023-01-01T08:37:42.797Z,83.87
2023-01-01T08:38:42.798Z,84.28
2023-01-01T08:39:42.736Z,84.18
2023-01-01T08:40:42.750Z,83.98
2023-01-01T08:41:42.719Z,83.87
2023-01-01T08:42:42.737Z,83.98
2023-01-01T08:43:42.673Z,84.08
2023-01-01T08:44:42.706Z,84.22
2023-01-01T08:45:42.711Z,84.63
2023-01-01T08:46:42.737Z,84.63
2023-01-01T08:47:42.639Z,84.28
2023-01-01T08:48:42.675Z,84.59
2023-01-01T08:49:42.647Z,84.80
2023-01-01T08:50:42.650Z,84.59
2023-01-01T08:51:42.595Z,84.08
2023-01-01T08:52:42.596Z,83.87
2023-01-01T08:53:46.979Z,83.87
2023-01-01T08:54:42.624Z,84.28
2023-01-01T08:55:42.523Z,83.98
2023-01-01T08:56:42.535Z,84.04
2023-01-01T08:57:42.497Z,84.14
2023-01-01T08:58:42.531Z,84.25
2023-01-01T08:59:42.513Z,84.04
2023-01-01T09:00:42.475Z,83.73
2023-01-01T09:01:42.637Z,83.94
2023-01-01T09:02:42.621Z,83.70
2023-01-01T09:03:42.417Z,83.18
2023-01-01T09:04:42.441Z,82.98
2023-01-01T09:05:42.417Z,82.54
2023-01-01T09:06:42.420Z,82.54
2023-01-01T09:07:42.412Z,81.99
2023-01-01T09:08:42.377Z,81.58
2023-01-01T09:09:42.354Z,81.48
2023-01-01T09:10:42.317Z,81.27
2023-01-01T09:11:42.342Z,81.04
2023-01-01T09:12:42.328Z,80.83
2023-01-01T09:13:42.312Z,80.52
2023-01-01T09:14:42.274Z,80.18
2023-01-01T09:15:42.297Z,79.98
2023-01-01T09:16:44.433Z,79.84
2023-01-01T09:17:42.259Z,78.82
2023-01-01T09:18:42.258Z,78.58
2023-01-01T09:19:42.249Z,78.38
2023-01-01T09:20:42.194Z,77.63
2023-01-01T09:21:42.206Z,77.12
2023-01-01T09:22:42.169Z,77.29
2023-01-01T09:23:42.183Z,76.48
2023-01-01T09:24:42.164Z,76.34
2023-01-01T09:25:42.166Z,76.34
2023-01-01T09:26:42.131Z,75.73
2023-01-01T09:27:42.126Z,75.39
2023-01-01T09:28:42.095Z,75.39
2023-01-01T09:29:42.093Z,74.68
2023-01-01T09:30:42.088Z,74.17
2023-01-01T09:31:42.093Z,74.17
2023-01-01T09:32:42.037Z,74.17
2023-01-01T09:33:42.061Z,74.17
2023-01-01T09:34:44.013Z,74.27
2023-01-01T09:35:42.049Z,73.83
2023-01-01T09:36:41.972Z,73.33
2023-01-01T09:37:42.017Z,73.33
2023-01-01T09:38:41.973Z,73.19
2023-01-01T09:39:41.969Z,73.29
2023-01-01T09:40:46.162Z,71.67
2023-01-01T09:41:41.948Z,72.24
2023-01-01T09:42:41.932Z,72.34
2023-01-01T09:43:41.947Z,71.53
2023-01-01T09:44:41.908Z,71.53
2023-01-01T09:45:41.962Z,71.73
2023-01-01T09:46:41.848Z,71.23
2023-01-01T09:47:41.865Z,70.69
2023-01-01T09:48:41.823Z,71.09
2023-01-01T09:49:41.853Z,71.20
2023-01-01T09:50:41.822Z,70.69
2023-01-01T09:51:49.870Z,70.65
2023-01-01T09:52:41.773Z,70.86
2023-01-01T09:53:41.816Z,70.15
2023-01-01T09:54:41.790Z,69.65
2023-01-01T09:55:41.763Z,69.51
2023-01-01T09:56:41.726Z,69.10
2023-01-01T09:57:41.774Z,69.10
2023-01-01T09:58:41.712Z,68.77
2023-01-01T09:59:41.728Z,68.40
2023-01-01T10:00:41.689Z,68.67
2023-01-01T10:01:41.819Z,67.86
2023-01-01T10:02:41.640Z,67.52
2023-01-01T10:03:41.897Z,67.72
2023-01-01T10:04:41.629Z,67.29
2023-01-01T10:05:41.638Z,67.19
2023-01-01T10:06:41.614Z,66.69
2023-01-01T10:07:41.603Z,66.52
2023-01-01T10:08:41.578Z,67.12
2023-01-01T10:09:41.619Z,67.46
2023-01-01T10:10:41.556Z,67.46
2023-01-01T10:11:41.591Z,67.99
2023-01-01T10:12:41.520Z,67.69
2023-01-01T10:13:41.531Z,68.23
2023-01-01T10:14:41.526Z,68.23
2023-01-01T10:15:41.528Z,68.43
2023-01-01T10:16:41.577Z,69.07
2023-01-01T10:17:41.499Z,69.07
2023-01-01T10:18:41.524Z,69.17
2023-01-01T10:19:41.496Z,69.27
2023-01-01T10:20:41.435Z,69.17
2023-01-01T10:21:46.723Z,68.97
2023-01-01T10:22:41.398Z,69.07
2023-01-01T10:23:41.428Z,69.07
2023-01-01T10:24:41.349Z,69.14
2023-01-01T10:25:41.390Z,68.63
2023-01-01T10:26:41.329Z,69.04
2023-01-01T10:27:41.363Z,69.14
2023-01-01T10:28:41.319Z,68.94
2023-01-01T10:29:41.363Z,68.94
2023-01-01T10:30:41.303Z,68.53
2023-01-01T10:31:41.340Z,68.84
2023-01-01T10:32:41.261Z,69.04
2023-01-01T10:33:41.274Z,69.14
2023-01-01T10:34:41.247Z,69.04
2023-01-01T10:35:41.239Z,68.33
2023-01-01T10:36:41.205Z,68.43
2023-01-01T10:37:41.206Z,68.73
2023-01-01T10:38:41.171Z,68.63
2023-01-01T10:39:41.226Z,68.43
2023-01-01T10:40:41.128Z,68.53
2023-01-01T10:41:41.154Z,69.04
2023-01-01T10:42:41.128Z,68.73
2023-01-01T10:43:41.129Z,68.50
2023-01-01T10:44:41.116Z,68.40
2023-01-01T10:45:41.137Z,68.30
2023-01-01T10:46:41.081Z,68.30
2023-01-01T10:47:41.083Z,68.60
2023-01-01T10:48:41.044Z,68.10
2023-01-01T10:49:41.081Z,67.49
2023-01-01T10:50:41.015Z,67.29
2023-01-01T10:51:41.025Z,67.29
2023-01-01T10:52:40.996Z,67.08
2023-01-01T10:53:41.012Z,67.39
2023-01-01T10:54:40.973Z,67.49
2023-01-01T10:55:40.973Z,67.89
2023-01-01T10:56:40.954Z,67.99
2023-01-01T10:57:40.946Z,68.19
2023-01-01T10:58:40.908Z,68.50
2023-01-01T10:59:40.905Z,67.99
2023-01-01T11:00:40.884Z,67.99
2023-01-01T11:01:40.989Z,68.30
2023-01-01T11:02:40.969Z,68.60
2023-01-01T11:03:40.867Z,68.40
2023-01-01T11:04:40.821Z,68.60
2023-01-01T11:05:40.849Z,68.63
2023-01-01T11:06:40.827Z,68.13
2023-01-01T11:07:40.821Z,68.13
2023-01-01T11:08:40.799Z,68.33
2023-01-01T11:09:47.998Z,68.13
2023-01-01T11:10:40.752Z,67.82
2023-01-01T11:11:40.961Z,68.13
2023-01-01T11:13:40.729Z,67.99
2023-01-01T11:14:40.692Z,67.99
2023-01-01T11:15:40.707Z,67.89
2023-01-01T11:16:40.794Z,67.59
2023-01-01T11:17:40.685Z,68.19
2023-01-01T11:18:40.644Z,67.79
2023-01-01T11:19:43.112Z,67.79
2023-01-01T11:20:40.637Z,67.46
2023-01-01T11:21:40.629Z,67.55
2023-01-01T11:22:40.636Z,67.55
2023-01-01T11:23:40.598Z,66.95
2023-01-01T11:24:40.559Z,66.64
2023-01-01T11:25:40.559Z,65.81
2023-01-01T11:26:40.538Z,66.61
2023-01-01T11:27:40.565Z,66.11
2023-01-01T11:28:40.499Z,65.91
2023-01-01T11:29:40.567Z,65.37
2023-01-01T11:30:40.509Z,65.98
2023-01-01T11:31:40.483Z,65.98
2023-01-01T11:32:40.483Z,65.27
2023-01-01T11:33:40.490Z,65.17
2023-01-01T11:34:40.442Z,64.67
2023-01-01T11:35:40.450Z,64.76
2023-01-01T11:36:40.421Z,64.76
2023-01-01T11:37:40.445Z,64.87
2023-01-01T11:38:40.393Z,65.07
2023-01-01T11:39:40.424Z,65.27
2023-01-01T11:40:40.360Z,65.27
2023-01-01T11:41:40.395Z,64.06
2023-01-01T11:42:40.321Z,64.06
2023-01-01T11:43:40.369Z,64.56
2023-01-01T11:44:40.312Z,63.35
2023-01-01T11:45:40.339Z,64.36
2023-01-01T11:46:40.309Z,63.73
2023-01-01T11:47:40.379Z,64.03
2023-01-01T11:48:40.253Z,64.13
2023-01-01T11:49:40.272Z,63.93
2023-01-01T11:50:40.239Z,63.73
2023-01-01T11:51:40.227Z,63.42
2023-01-01T11:52:40.200Z,63.02
2023-01-01T11:53:40.236Z,63.52
2023-01-01T11:54:40.170Z,63.02
2023-01-01T11:55:40.222Z,63.32
2023-01-01T11:56:40.137Z,62.92
2023-01-01T11:57:40.144Z,62.71
2023-01-01T11:58:40.171Z,62.82
2023-01-01T11:59:40.170Z,62.71
2023-01-01T12:00:40.107Z,62.62
2023-01-01T12:01:40.191Z,62.31
2023-01-01T12:02:40.142Z,62.62
2023-01-01T12:03:40.138Z,62.31
2023-01-01T12:04:40.048Z,62.28
2023-01-01T12:05:40.090Z,62.68
2023-01-01T12:06:40.016Z,62.99
2023-01-01T12:07:40.016Z,62.38
2023-01-01T12:08:39.998Z,62.59
2023-01-01T12:09:40.004Z,62.48
2023-01-01T12:10:39.968Z,62.59
2023-01-01T12:11:39.960Z,62.71
2023-01-01T12:12:40.046Z,62.82
2023-01-01T12:13:39.950Z,62.82
2023-01-01T12:14:39.926Z,63.12
2023-01-01T12:15:39.988Z,62.21
2023-01-01T12:16:39.876Z,62.11
2023-01-01T12:17:39.937Z,62.31
2023-01-01T12:18:39.854Z,62.62
2023-01-01T12:19:39.883Z,62.21
2023-01-01T12:20:39.842Z,62.51
2023-01-01T12:21:39.834Z,62.31
2023-01-01T12:22:39.837Z,62.11
2023-01-01T12:23:39.831Z,62.11
2023-01-01T12:24:39.793Z,62.41
2023-01-01T12:25:39.805Z,62.51
2023-01-01T12:26:39.765Z,62.92
2023-01-01T12:27:39.801Z,62.62
2023-01-01T12:28:39.712Z,62.31
2023-01-01T12:29:39.769Z,62.82
2023-01-01T12:30:39.714Z,63.12
2023-01-01T12:31:39.901Z,63.12
2023-01-01T12:32:39.664Z,63.22
2023-01-01T12:33:39.684Z,63.02
2023-01-01T12:34:39.700Z,63.02
2023-01-01T12:35:39.667Z,63.22
2023-01-01T12:36:39.646Z,63.42
2023-01-01T12:37:39.648Z,63.02
2023-01-01T12:38:39.616Z,63.22
2023-01-01T12:39:39.647Z,62.95
2023-01-01T12:40:39.620Z,63.25
2023-01-01T12:41:39.596Z,63.35
2023-01-01T12:42:39.552Z,63.05
2023-01-01T12:43:39.620Z,62.74
2023-01-01T12:44:39.529Z,62.44
2023-01-01T12:45:39.541Z,62.54
2023-01-01T12:46:39.533Z,62.54
2023-01-01T12:47:39.510Z,62.74
2023-01-01T12:48:39.469Z,62.95
2023-01-01T12:49:39.550Z,63.15
2023-01-01T12:50:39.450Z,63.35
2023-01-01T12:51:39.442Z,63.45
2023-01-01T12:52:39.407Z,63.65
2023-01-01T12:53:39.398Z,63.65
2023-01-01T12:54:39.397Z,63.25
2023-01-01T12:55:39.415Z,63.65